Time;durP1;ratioP1;P1;durP2;ratioP2;P2;SDS_P1;SDS_P2;PMS_P1;PMS_P2;Temp;Humidity;BMP_temperature;BMP_pressure;BME280_temperature;BME280_humidity;BME280_pressure;Samples;Min_cycle;Max_cycle;Signal;HPM_P1;HPM_P2
2022/06/22 00:00:04;;;;;;;5.20;3.30;;;16.30;57.00;;;;;;622645;230;26631;-68
2022/06/22 00:02:32;;;;;;;5.45;3.33;;;16.30;57.00;;;;;;624392;228;26819;-69
2022/06/22 00:05:00;;;;;;;5.80;3.33;;;16.30;57.00;;;;;;624603;228;26589;-69
2022/06/22 00:07:31;;;;;;;15.45;4.43;;;16.30;57.00;;;;;;624632;229;27000;-70
2022/06/22 00:10:08;;;;;;;8.48;4.00;;;16.20;56.50;;;;;;624212;229;26657;-70
2022/06/22 00:12:35;;;;;;;8.07;3.60;;;16.20;56.70;;;;;;623155;228;26560;-69
2022/06/22 00:15:03;;;;;;;5.55;3.20;;;16.20;56.90;;;;;;623563;229;26644;-70
2022/06/22 00:17:33;;;;;;;5.15;3.10;;;16.10;56.50;;;;;;622450;229;26603;-69
2022/06/22 00:20:01;;;;;;;4.87;3.15;;;16.20;56.20;;;;;;624422;227;26637;-69
2022/06/22 00:22:29;;;;;;;4.32;3.35;;;16.10;55.60;;;;;;622053;229;26583;-69
2022/06/22 00:25:00;;;;;;;5.10;3.15;;;16.10;55.60;;;;;;622283;229;26556;-69
2022/06/22 00:27:30;;;;;;;5.95;3.75;;;16.10;55.80;;;;;;622875;229;26554;-69
2022/06/22 00:30:06;;;;;;;4.57;3.03;;;16.10;55.60;;;;;;624488;226;26592;-70
2022/06/22 00:32:34;;;;;;;5.12;3.30;;;16.00;56.40;;;;;;622855;229;26567;-69
2022/06/22 00:35:14;;;;;;;4.43;2.80;;;16.00;56.20;;;;;;623139;229;26564;-69
2022/06/22 00:37:42;;;;;;;5.30;3.37;;;15.90;56.10;;;;;;623144;227;26567;-69
2022/06/22 00:40:09;;;;;;;4.60;2.95;;;15.90;56.10;;;;;;622987;225;26581;-70
2022/06/22 00:42:38;;;;;;;7.35;2.83;;;15.90;56.30;;;;;;621145;230;26618;-69
2022/06/22 00:45:12;;;;;;;5.53;3.37;;;15.90;55.80;;;;;;623049;228;26563;-69
2022/06/22 00:47:46;;;;;;;4.22;2.65;;;15.90;55.70;;;;;;621017;230;26617;-69
2022/06/22 00:50:15;;;;;;;5.85;2.83;;;15.90;55.70;;;;;;620717;230;26806;-69
2022/06/22 00:52:43;;;;;;;4.50;2.83;;;15.90;55.30;;;;;;622211;230;26806;-69
2022/06/22 00:55:16;;;;;;;4.65;2.50;;;15.90;55.30;;;;;;622752;230;26570;-70
2022/06/22 00:57:43;;;;;;;2.97;2.30;;;15.90;55.60;;;;;;621189;230;26592;-69
2022/06/22 01:00:16;;;;;;;2.60;2.37;;;15.90;55.50;;;;;;622808;230;26604;-69
2022/06/22 01:02:45;;;;;;;3.90;2.30;;;15.90;55.00;;;;;;622663;228;26591;-69
2022/06/22 01:05:15;;;;;;;3.47;2.47;;;15.90;54.40;;;;;;622854;230;26603;-70
2022/06/22 01:07:45;;;;;;;3.20;2.35;;;15.90;54.40;;;;;;622412;230;26841;-70
2022/06/22 01:10:16;;;;;;;2.05;1.77;;;15.90;54.30;;;;;;624460;226;27054;-67
2022/06/22 01:12:46;;;;;;;4.53;2.40;;;15.90;53.90;;;;;;621900;230;26619;-68
2022/06/22 01:15:23;;;;;;;3.33;2.17;;;15.90;53.90;;;;;;622549;229;26532;-69
2022/06/22 01:17:51;;;;;;;3.33;2.22;;;16.00;54.00;;;;;;624431;227;26657;-69
2022/06/22 01:20:19;;;;;;;2.85;2.08;;;15.90;53.90;;;;;;622561;229;26643;-69
2022/06/22 01:22:51;;;;;;;1.90;1.80;;;15.90;54.30;;;;;;621270;228;26590;-69
2022/06/22 01:25:33;;;;;;;2.33;1.60;;;15.90;54.40;;;;;;622200;229;27239;-70
2022/06/22 01:28:01;;;;;;;3.53;1.85;;;15.90;54.10;;;;;;624033;226;26604;-68
2022/06/22 01:30:34;;;;;;;2.17;2.03;;;15.80;54.10;;;;;;622761;228;26595;-68
2022/06/22 01:33:00;;;;;;;3.05;2.28;;;15.80;54.40;;;;;;623265;229;27259;-68
2022/06/22 01:35:28;;;;;;;5.22;2.12;;;15.80;54.70;;;;;;624246;229;26614;-68
2022/06/22 01:37:55;;;;;;;2.30;1.70;;;15.80;55.20;;;;;;622238;229;26887;-68
2022/06/22 01:40:25;;;;;;;2.12;1.80;;;15.70;55.30;;;;;;623234;229;26533;-68
2022/06/22 01:42:59;;;;;;;3.67;2.15;;;15.70;55.30;;;;;;623516;229;26560;-68
2022/06/22 01:45:35;;;;;;;1.90;1.75;;;15.60;55.50;;;;;;622080;229;26574;-68
2022/06/22 01:48:03;;;;;;;1.87;1.67;;;15.60;55.50;;;;;;623754;229;26544;-69
2022/06/22 01:50:31;;;;;;;1.83;1.45;;;15.60;56.70;;;;;;622963;229;26554;-68
2022/06/22 01:52:59;;;;;;;3.00;1.50;;;15.50;57.00;;;;;;622866;228;26826;-68
2022/06/22 01:55:28;;;;;;;1.70;1.60;;;15.50;56.80;;;;;;622357;230;26616;-68
2022/06/22 01:57:57;;;;;;;3.17;2.08;;;15.50;56.80;;;;;;622677;230;26551;-70
2022/06/22 02:00:24;;;;;;;2.15;1.70;;;15.50;57.60;;;;;;622366;230;26566;-68
2022/06/22 02:02:57;;;;;;;1.87;1.58;;;15.30;57.80;;;;;;621697;230;26851;-69
2022/06/22 02:05:45;;;;;;;1.75;1.52;;;15.30;58.20;;;;;;624167;230;26558;-69
2022/06/22 02:08:17;;;;;;;1.60;1.50;;;15.30;58.20;;;;;;620796;229;26823;-69
2022/06/22 02:10:48;;;;;;;1.85;1.58;;;15.20;58.40;;;;;;623116;230;26578;-68
2022/06/22 02:13:23;;;;;;;1.70;1.55;;;15.20;58.40;;;;;;624022;230;26601;-69
2022/06/22 02:15:54;;;;;;;2.75;1.67;;;15.20;59.40;;;;;;623333;230;26580;-69
2022/06/22 02:18:27;;;;;;;1.70;1.60;;;15.10;58.90;;;;;;621962;230;26637;-70
2022/06/22 02:20:55;;;;;;;1.12;1.12;;;15.20;59.30;;;;;;624260;230;26589;-68
2022/06/22 02:23:28;;;;;;;1.75;1.40;;;15.10;59.90;;;;;;623281;230;26602;-68
2022/06/22 02:26:02;;;;;;;1.70;1.30;;;15.10;59.90;;;;;;623381;230;26602;-69
2022/06/22 02:28:30;;;;;;;1.62;1.50;;;15.10;60.00;;;;;;624121;229;26827;-68
2022/06/22 02:30:57;;;;;;;2.90;1.70;;;15.10;60.20;;;;;;624329;229;26610;-68
2022/06/22 02:33:25;;;;;;;1.48;1.37;;;15.00;60.00;;;;;;623277;229;26800;-69
2022/06/22 02:35:52;;;;;;;3.53;1.50;;;15.00;60.00;;;;;;624933;229;26540;-68
2022/06/22 02:38:21;;;;;;;1.48;1.37;;;15.00;60.50;;;;;;624147;229;26804;-69
2022/06/22 02:45:55;;;;;;;3.00;1.50;;;14.90;60.70;;;;;;624824;229;26821;-69
2022/06/22 02:48:25;;;;;;;1.48;1.37;;;14.90;61.90;;;;;;622728;229;26579;-68
2022/06/22 02:51:00;;;;;;;1.35;1.25;;;14.90;61.30;;;;;;623575;229;26560;-69
2022/06/22 02:53:33;;;;;;;2.15;1.60;;;14.90;62.00;;;;;;623947;229;26554;-69
2022/06/22 02:55:58;;;;;;;2.65;1.48;;;14.80;61.50;;;;;;622337;229;26579;-70
2022/06/22 02:58:27;;;;;;;1.50;1.40;;;14.80;62.00;;;;;;621323;229;26606;-69
2022/06/22 03:00:54;;;;;;;1.55;1.45;;;14.80;62.00;;;;;;623334;229;26762;-69
2022/06/22 03:03:23;;;;;;;1.60;1.48;;;14.80;62.20;;;;;;624034;229;26535;-69
2022/06/22 03:05:51;;;;;;;1.77;1.10;;;14.80;62.60;;;;;;622637;228;26584;-69
2022/06/22 03:08:20;;;;;;;2.08;1.40;;;14.80;63.50;;;;;;622845;228;26591;-69
2022/06/22 03:10:48;;;;;;;1.33;1.23;;;14.90;64.90;;;;;;623217;230;26547;-69
2022/06/22 03:13:17;;;;;;;2.08;1.40;;;14.80;64.80;;;;;;622395;230;26622;-70
2022/06/22 03:15:45;;;;;;;3.60;1.60;;;14.80;64.70;;;;;;622980;230;26555;-69
2022/06/22 03:18:13;;;;;;;1.40;1.30;;;14.80;64.70;;;;;;622617;230;26595;-69
2022/06/22 03:20:47;;;;;;;1.30;1.20;;;14.90;65.30;;;;;;622298;230;26565;-68
2022/06/22 03:23:18;;;;;;;1.45;1.30;;;14.80;65.10;;;;;;624110;230;26804;-69
2022/06/22 03:25:49;;;;;;;1.25;1.15;;;14.90;64.90;;;;;;623013;230;26570;-69
2022/06/22 03:28:17;;;;;;;1.50;1.40;;;14.90;64.80;;;;;;622337;227;26683;-69
2022/06/22 03:30:59;;;;;;;2.15;1.40;;;15.00;64.70;;;;;;622402;230;26615;-69
2022/06/22 03:33:28;;;;;;;1.20;1.10;;;15.00;64.30;;;;;;619201;230;26647;-69
2022/06/22 03:35:56;;;;;;;2.17;1.40;;;15.00;64.40;;;;;;621104;230;26838;-70
2022/06/22 03:38:27;;;;;;;1.37;1.27;;;15.10;65.80;;;;;;622183;229;26583;-69
2022/06/22 03:40:55;;;;;;;3.78;1.50;;;15.10;65.40;;;;;;625706;228;26597;-70
2022/06/22 03:43:23;;;;;;;2.35;1.10;;;15.10;65.30;;;;;;623962;229;26607;-69
2022/06/22 03:45:54;;;;;;;2.03;1.37;;;15.20;65.70;;;;;;624737;229;26575;-69
2022/06/22 03:48:25;;;;;;;1.37;1.27;;;15.20;65.70;;;;;;623411;229;26812;-68
2022/06/22 03:50:54;;;;;;;1.02;1.02;;;15.20;66.60;;;;;;623578;229;27432;-69
2022/06/22 03:53:22;;;;;;;2.15;1.55;;;15.20;65.70;;;;;;621863;229;26836;-69
2022/06/22 03:55:49;;;;;;;2.50;1.23;;;15.20;66.40;;;;;;623320;229;26615;-68
2022/06/22 03:58:20;;;;;;;1.87;1.30;;;15.30;66.10;;;;;;623933;229;26621;-69
2022/06/22 04:00:45;;;;;;;2.08;1.23;;;15.30;65.70;;;;;;622460;229;26736;-69
2022/06/22 04:03:12;;;;;;;2.05;1.42;;;15.30;65.70;;;;;;624497;229;27199;-68
2022/06/22 04:05:41;;;;;;;1.60;1.20;;;15.40;65.80;;;;;;623531;229;26532;-69
2022/06/22 04:08:08;;;;;;;1.48;1.17;;;15.40;65.70;;;;;;621464;229;26804;-69
2022/06/22 04:10:37;;;;;;;1.58;1.15;;;15.40;66.00;;;;;;621324;229;26570;-69
2022/06/22 04:13:05;;;;;;;2.10;1.30;;;15.40;65.40;;;;;;623573;229;26524;-69
2022/06/22 04:15:34;;;;;;;1.30;1.20;;;15.50;64.80;;;;;;622702;229;26546;-69
2022/06/22 04:18:02;;;;;;;1.23;1.12;;;15.50;65.10;;;;;;622046;229;26620;-69
2022/06/22 04:20:50;;;;;;;2.67;1.58;;;15.60;65.50;;;;;;622515;230;26623;-70
2022/06/22 04:23:32;;;;;;;1.50;1.10;;;15.70;65.50;;;;;;622983;230;26574;-69
2022/06/22 04:26:02;;;;;;;1.30;1.20;;;15.80;65.00;;;;;;623105;230;26624;-69
2022/06/22 04:28:29;;;;;;;1.35;1.17;;;15.80;64.90;;;;;;621977;228;26646;-69
2022/06/22 04:30:56;;;;;;;1.35;1.23;;;15.90;64.90;;;;;;622485;228;26841;-68
2022/06/22 04:33:28;;;;;;;1.17;1.12;;;16.00;64.50;;;;;;625411;228;26564;-68
2022/06/22 04:35:55;;;;;;;2.42;1.37;;;16.00;64.50;;;;;;618717;230;26618;-69
2022/06/22 04:38:28;;;;;;;1.27;1.17;;;16.20;64.20;;;;;;621750;227;26658;-69
2022/06/22 04:40:57;;;;;;;1.37;1.27;;;16.30;64.40;;;;;;624466;230;26586;-69
2022/06/22 04:43:25;;;;;;;1.40;1.30;;;16.40;63.50;;;;;;622319;229;26836;-69
2022/06/22 04:45:53;;;;;;;2.37;1.50;;;16.40;63.90;;;;;;622732;230;26512;-69
2022/06/22 04:48:20;;;;;;;2.22;1.33;;;16.40;63.90;;;;;;625432;230;26607;-68
2022/06/22 04:50:48;;;;;;;1.12;1.10;;;16.60;63.00;;;;;;624612;230;26562;-68
2022/06/22 04:53:43;;;;;;;2.47;1.52;;;16.70;63.50;;;;;;627613;229;26846;-68
2022/06/22 04:56:11;;;;;;;1.85;1.10;;;16.70;63.60;;;;;;625136;229;26862;-68
2022/06/22 04:58:48;;;;;;;1.33;1.23;;;16.90;63.60;;;;;;619149;229;26583;-68
2022/06/22 05:01:19;;;;;;;1.20;1.10;;;17.10;62.60;;;;;;623646;229;26595;-68
2022/06/22 05:03:46;;;;;;;1.15;1.08;;;17.00;62.50;;;;;;624534;229;26619;-68
2022/06/22 05:06:17;;;;;;;1.58;1.25;;;17.20;61.20;;;;;;622088;229;26589;-68
2022/06/22 05:08:50;;;;;;;1.15;1.10;;;17.20;61.20;;;;;;626037;226;26669;-69
2022/06/22 05:11:18;;;;;;;1.42;1.33;;;17.40;61.80;;;;;;617847;229;26792;-69
2022/06/22 05:13:47;;;;;;;1.17;1.15;;;17.60;60.20;;;;;;620178;229;26576;-68
2022/06/22 05:16:16;;;;;;;1.65;1.23;;;17.70;59.50;;;;;;626387;229;26574;-68
2022/06/22 05:18:44;;;;;;;2.28;1.35;;;17.90;59.40;;;;;;624607;229;26607;-67
2022/06/22 05:21:15;;;;;;;2.47;1.40;;;18.00;59.40;;;;;;617668;229;26590;-67
2022/06/22 05:23:42;;;;;;;2.42;1.08;;;18.00;59.40;;;;;;618502;229;26578;-67
2022/06/22 05:26:10;;;;;;;1.50;1.40;;;18.20;59.10;;;;;;624019;229;26531;-67
2022/06/22 05:28:39;;;;;;;1.60;1.50;;;18.30;59.10;;;;;;625023;230;26808;-67
2022/06/22 05:31:09;;;;;;;1.55;1.37;;;18.30;58.60;;;;;;623336;230;26894;-67
2022/06/22 05:33:36;;;;;;;1.58;1.23;;;18.50;58.10;;;;;;625153;230;26777;-67
2022/06/22 05:36:05;;;;;;;1.85;1.30;;;18.60;57.70;;;;;;626163;230;26562;-67
2022/06/22 05:38:32;;;;;;;1.37;1.25;;;18.80;57.20;;;;;;625119;230;26588;-67
2022/06/22 05:41:04;;;;;;;2.78;1.25;;;18.90;56.70;;;;;;625254;229;26805;-67
2022/06/22 05:43:26;;;;;;;1.80;1.35;;;19.10;56.80;;;;;;622834;230;26590;-67
2022/06/22 05:45:54;;;;;;;2.03;1.58;;;19.20;56.40;;;;;;617455;233;26825;-67
2022/06/22 05:48:23;;;;;;;2.35;1.45;;;19.40;56.90;;;;;;617547;230;26615;-67
2022/06/22 05:50:51;;;;;;;1.60;1.40;;;19.50;56.90;;;;;;622914;230;26571;-67
2022/06/22 05:53:21;;;;;;;1.45;1.35;;;19.60;55.90;;;;;;625672;230;26526;-67
2022/06/22 05:56:06;;;;;;;2.33;1.40;;;19.80;55.80;;;;;;620726;230;26613;-67
2022/06/22 05:58:44;;;;;;;1.50;1.40;;;19.90;56.20;;;;;;614009;231;26595;-67
2022/06/22 06:01:13;;;;;;;1.02;1.00;;;20.20;54.10;;;;;;623760;230;26571;-67
2022/06/22 06:03:58;;;;;;;1.95;1.30;;;20.10;54.00;;;;;;627029;227;26633;-67
2022/06/22 06:06:25;;;;;;;1.83;1.20;;;20.20;54.00;;;;;;618924;228;26633;-67
2022/06/22 06:08:54;;;;;;;2.80;1.48;;;20.50;53.00;;;;;;624581;228;26596;-67
2022/06/22 06:11:22;;;;;;;1.55;1.45;;;20.40;53.00;;;;;;625809;228;26858;-67
2022/06/22 06:13:50;;;;;;;1.30;1.20;;;20.70;52.50;;;;;;626096;229;26611;-67
2022/06/22 06:16:19;;;;;;;1.27;1.17;;;20.70;52.50;;;;;;623244;229;26608;-68
2022/06/22 06:18:46;;;;;;;1.67;1.58;;;20.90;51.70;;;;;;624415;227;26643;-68
2022/06/22 06:21:16;;;;;;;1.83;1.23;;;21.00;51.60;;;;;;625802;227;26617;-67
2022/06/22 06:23:56;;;;;;;1.50;1.40;;;21.00;51.10;;;;;;626270;229;26555;-67
2022/06/22 06:29:11;;;;;;;1.48;1.37;;;21.30;50.90;;;;;;626884;229;26837;-68
2022/06/22 06:31:42;;;;;;;1.90;1.23;;;21.40;50.70;;;;;;624587;229;26767;-68
2022/06/22 06:34:10;;;;;;;3.87;1.48;;;21.40;50.40;;;;;;618871;229;26553;-68
2022/06/22 06:36:39;;;;;;;1.65;1.50;;;21.40;49.50;;;;;;622201;229;26805;-68
2022/06/22 06:39:07;;;;;;;1.70;1.60;;;21.90;49.30;;;;;;622972;227;26597;-70
2022/06/22 06:41:39;;;;;;;2.17;1.70;;;22.00;49.20;;;;;;620121;230;26881;-69
2022/06/22 06:44:10;;;;;;;2.83;1.50;;;22.00;49.20;;;;;;623754;230;26574;-68
2022/06/22 06:46:38;;;;;;;1.83;1.33;;;22.10;49.50;;;;;;623417;230;26799;-70
2022/06/22 06:49:34;;;;;;;69.10;14.05;;;22.30;48.30;;;;;;622259;225;26579;-68
2022/06/22 06:52:02;;;;;;;18.92;4.18;;;22.30;48.70;;;;;;622164;228;26631;-71
2022/06/22 06:54:31;;;;;;;32.50;7.12;;;22.50;47.70;;;;;;623059;230;26571;-71
2022/06/22 06:57:13;;;;;;;31.30;6.82;;;22.60;47.30;;;;;;622902;230;26533;-73
2022/06/22 06:59:42;;;;;;;30.92;7.22;;;22.50;44.20;;;;;;624045;228;26614;-72
2022/06/22 07:02:14;;;;;;;16.67;4.22;;;22.40;44.10;;;;;;622308;230;26622;-72
2022/06/22 07:04:42;;;;;;;8.02;2.97;;;22.80;45.40;;;;;;623757;230;26612;-71
2022/06/22 07:07:24;;;;;;;6.55;2.85;;;22.80;45.40;;;;;;623276;230;26840;-67
2022/06/22 07:09:52;;;;;;;1.62;1.48;;;23.00;45.60;;;;;;623750;228;26578;-65
2022/06/22 07:12:35;;;;;;;18.60;4.47;;;23.00;45.20;;;;;;623600;230;26563;-66
2022/06/22 07:15:02;;;;;;;10.68;3.12;;;23.10;45.00;;;;;;622430;229;26616;-65
2022/06/22 07:17:28;;;;;;;4.47;1.83;;;23.00;43.20;;;;;;624263;229;26857;-65
2022/06/22 07:19:56;;;;;;;2.25;1.62;;;22.80;43.30;;;;;;623415;225;26583;-65
2022/06/22 07:22:31;;;;;;;7.70;1.85;;;23.00;42.90;;;;;;623457;227;26572;-65
2022/06/22 07:25:01;;;;;;;5.93;1.90;;;23.00;42.80;;;;;;624781;229;26862;-65
2022/06/22 07:27:39;;;;;;;4.40;1.27;;;23.30;43.20;;;;;;624519;227;26620;-65
2022/06/22 07:30:10;;;;;;;2.75;1.52;;;23.30;42.50;;;;;;623900;229;26644;-65
2022/06/22 07:32:42;;;;;;;7.95;2.22;;;23.60;43.10;;;;;;624692;229;27242;-64
2022/06/22 07:35:18;;;;;;;3.50;1.40;;;23.60;43.10;;;;;;623426;229;26563;-65
2022/06/22 07:37:52;;;;;;;4.57;1.55;;;23.50;42.80;;;;;;623393;229;26559;-65
2022/06/22 07:40:19;;;;;;;4.62;1.90;;;23.50;42.40;;;;;;622756;229;26586;-66
2022/06/22 07:42:48;;;;;;;1.50;1.40;;;23.40;41.90;;;;;;623491;229;26576;-66
2022/06/22 07:45:17;;;;;;;4.25;1.77;;;23.40;41.90;;;;;;623044;228;26539;-66
2022/06/22 07:47:45;;;;;;;4.35;1.60;;;23.30;41.80;;;;;;622697;229;26558;-65
2022/06/22 07:50:14;;;;;;;2.90;1.37;;;23.40;41.80;;;;;;620576;229;26618;-65
2022/06/22 07:52:45;;;;;;;2.15;1.40;;;23.50;41.00;;;;;;622298;230;26607;-65
2022/06/22 07:55:17;;;;;;;2.95;1.48;;;23.50;41.00;;;;;;621517;230;26606;-65
2022/06/22 07:57:48;;;;;;;1.25;1.15;;;23.60;41.10;;;;;;623066;230;26558;-64
2022/06/22 08:00:17;;;;;;;4.03;1.90;;;23.70;40.90;;;;;;621968;230;26630;-64
2022/06/22 08:03:00;;;;;;;4.40;1.52;;;23.80;40.80;;;;;;622235;230;26601;-65
2022/06/22 08:05:28;;;;;;;2.65;1.27;;;23.90;41.50;;;;;;622427;230;26599;-65
2022/06/22 08:08:02;;;;;;;2.90;1.60;;;23.90;41.50;;;;;;623022;228;26558;-65
2022/06/22 08:10:32;;;;;;;6.37;1.60;;;24.00;41.20;;;;;;623120;229;26875;-65
2022/06/22 08:13:02;;;;;;;2.42;1.30;;;24.00;41.50;;;;;;624326;229;26631;-66
2022/06/22 08:15:30;;;;;;;3.33;1.58;;;24.00;41.20;;;;;;623796;230;26623;-65
2022/06/22 08:17:56;;;;;;;1.35;1.25;;;24.00;41.00;;;;;;622322;230;27142;-71
2022/06/22 08:20:24;;;;;;;5.10;1.80;;;24.00;41.70;;;;;;620475;230;26595;-71
2022/06/22 08:22:53;;;;;;;1.25;1.00;;;24.00;41.50;;;;;;623090;228;26817;-72
2022/06/22 08:25:19;;;;;;;1.25;1.15;;;24.00;41.60;;;;;;621244;230;26518;-71
2022/06/22 08:27:46;;;;;;;1.30;1.20;;;24.00;41.60;;;;;;620887;229;26565;-66
2022/06/22 08:30:14;;;;;;;2.12;1.00;;;23.90;41.60;;;;;;622536;225;26876;-69
2022/06/22 08:32:43;;;;;;;2.22;1.20;;;23.90;41.30;;;;;;626594;228;26566;-67
2022/06/22 08:35:16;;;;;;;0.75;0.75;;;24.10;41.90;;;;;;625212;229;26559;-70
2022/06/22 08:37:44;;;;;;;3.97;1.50;;;24.10;41.90;;;;;;621865;229;26858;-69
2022/06/22 08:40:12;;;;;;;0.80;0.80;;;24.10;41.00;;;;;;624727;225;26635;-66
2022/06/22 08:42:43;;;;;;;0.90;0.90;;;24.10;41.60;;;;;;625221;229;27330;-67
2022/06/22 08:45:34;;;;;;;0.98;0.98;;;24.20;41.30;;;;;;626015;229;26558;-68
2022/06/22 08:48:03;;;;;;;0.90;0.82;;;24.20;41.30;;;;;;615995;225;26623;-69
2022/06/22 08:51:05;;;;;;;1.20;1.10;;;24.30;41.70;;;;;;645462;220;26542;-69
2022/06/22 08:54:09;;;;;;;4.50;1.10;;;24.40;41.70;;;;;;634053;220;26575;-69
2022/06/22 08:56:47;;;;;;;1.73;1.10;;;24.40;41.80;;;;;;642387;221;26545;-67
2022/06/22 08:59:32;;;;;;;2.87;1.00;;;24.40;40.80;;;;;;640433;221;26775;-71
2022/06/22 09:02:14;;;;;;;1.62;1.02;;;24.30;39.90;;;;;;648570;218;26725;-66
2022/06/22 09:04:59;;;;;;;4.10;1.60;;;24.10;40.20;;;;;;645474;221;26554;-67
2022/06/22 09:07:47;;;;;;;1.55;1.40;;;24.10;39.60;;;;;;639761;221;26507;-71
2022/06/22 09:10:22;;;;;;;4.47;1.52;;;24.00;38.20;;;;;;631402;225;26614;-69
2022/06/22 09:13:05;;;;;;;3.60;1.42;;;24.00;38.20;;;;;;637797;225;26548;-73
2022/06/22 09:15:35;;;;;;;1.67;1.45;;;23.90;38.30;;;;;;638287;223;26514;-68
2022/06/22 09:18:06;;;;;;;3.08;1.50;;;24.00;37.90;;;;;;638184;223;26586;-66
2022/06/22 09:20:51;;;;;;;3.10;1.33;;;23.90;37.80;;;;;;637201;221;26510;-68
2022/06/22 09:23:28;;;;;;;4.05;1.60;;;24.00;37.80;;;;;;638587;224;26823;-66
2022/06/22 09:26:10;;;;;;;6.60;1.62;;;23.90;36.80;;;;;;638093;224;26512;-66
2022/06/22 09:28:58;;;;;;;2.25;1.55;;;24.00;36.80;;;;;;639273;221;26607;-70
2022/06/22 09:31:43;;;;;;;4.28;1.37;;;24.10;37.30;;;;;;638611;220;26596;-66
2022/06/22 09:34:15;;;;;;;2.95;1.40;;;24.10;37.10;;;;;;620940;229;26596;-67
2022/06/22 09:36:42;;;;;;;3.60;1.42;;;24.10;36.40;;;;;;622906;227;26543;-68
2022/06/22 09:39:28;;;;;;;2.53;1.55;;;24.10;36.50;;;;;;632553;225;26636;-69
2022/06/22 09:41:59;;;;;;;4.25;1.15;;;24.10;36.30;;;;;;629490;227;26771;-69
2022/06/22 09:44:34;;;;;;;3.83;1.50;;;24.00;35.60;;;;;;624983;227;26791;-67
2022/06/22 09:47:19;;;;;;;1.15;1.05;;;24.20;36.30;;;;;;632382;227;26559;-70
2022/06/22 09:49:55;;;;;;;1.08;0.90;;;24.20;35.10;;;;;;631491;227;26614;-68
2022/06/22 09:52:50;;;;;;;3.10;1.35;;;24.30;34.90;;;;;;632503;227;26589;-67
2022/06/22 09:58:29;;;;;;;2.12;1.12;;;24.30;35.50;;;;;;623797;227;26645;-67
2022/06/22 10:01:17;;;;;;;2.40;1.00;;;24.30;38.00;;;;;;618343;230;26619;-69
2022/06/22 10:04:01;;;;;;;1.65;1.00;;;24.30;38.00;;;;;;629537;227;26503;-67
2022/06/22 10:06:50;;;;;;;1.02;1.00;;;24.40;36.90;;;;;;624104;230;26606;-70
2022/06/22 10:09:27;;;;;;;2.53;1.48;;;24.40;36.90;;;;;;631630;227;26550;-66
2022/06/22 10:12:01;;;;;;;1.58;1.17;;;24.50;36.80;;;;;;632215;227;26802;-67
2022/06/22 10:14:47;;;;;;;3.33;1.30;;;24.50;36.80;;;;;;628259;227;26545;-66
2022/06/22 10:17:32;;;;;;;1.60;1.20;;;24.60;38.00;;;;;;626978;227;26584;-69
2022/06/22 10:20:14;;;;;;;3.05;1.30;;;24.40;37.90;;;;;;619624;229;26550;-66
2022/06/22 10:23:10;;;;;;;1.73;1.62;;;24.40;37.90;;;;;;632279;227;26591;-66
2022/06/22 10:25:55;;;;;;;3.35;1.27;;;24.40;37.90;;;;;;619417;227;26614;-66
2022/06/22 10:28:35;;;;;;;1.77;1.20;;;24.30;36.30;;;;;;629021;226;26613;-66
2022/06/22 10:31:14;;;;;;;7.12;1.30;;;24.30;37.00;;;;;;626830;227;26585;-66
2022/06/22 10:33:45;;;;;;;1.50;1.30;;;24.30;36.90;;;;;;624980;227;26556;-66
2022/06/22 10:36:19;;;;;;;1.83;1.45;;;24.30;37.80;;;;;;631049;227;26587;-67
2022/06/22 10:38:47;;;;;;;2.03;1.23;;;24.50;37.80;;;;;;625847;227;26620;-66
2022/06/22 10:47:23;;;;;;;2.60;1.50;;;24.80;37.90;;;;;;628114;227;26501;-67
2022/06/22 10:50:08;;;;;;;3.30;1.33;;;24.80;37.00;;;;;;617133;231;26619;-67
2022/06/22 10:52:47;;;;;;;1.70;1.17;;;24.90;37.00;;;;;;632479;227;26597;-67
2022/06/22 10:55:23;;;;;;;0.90;0.90;;;25.00;36.30;;;;;;632396;227;27288;-67
2022/06/22 10:57:54;;;;;;;0.75;0.75;;;25.10;36.50;;;;;;624524;227;26549;-66
2022/06/22 11:00:43;;;;;;;1.10;1.10;;;25.10;37.30;;;;;;632915;227;26610;-66
2022/06/22 11:03:24;;;;;;;1.27;1.17;;;25.30;37.70;;;;;;624383;227;26794;-66
2022/06/22 11:06:12;;;;;;;0.95;0.60;;;25.30;37.30;;;;;;623625;230;26550;-66
2022/06/22 11:08:44;;;;;;;0.90;0.90;;;25.30;36.20;;;;;;632854;227;26577;-66
2022/06/22 11:11:16;;;;;;;0.95;0.95;;;25.30;36.20;;;;;;631233;227;27215;-66
2022/06/22 11:14:05;;;;;;;0.80;0.80;;;25.30;38.50;;;;;;622792;228;26816;-66
2022/06/22 11:16:42;;;;;;;1.55;1.45;;;25.20;36.50;;;;;;627807;227;26601;-66
2022/06/22 11:19:16;;;;;;;2.05;1.10;;;25.20;36.50;;;;;;627245;227;26783;-66
2022/06/22 11:22:08;;;;;;;1.67;1.27;;;25.20;37.10;;;;;;623197;227;26538;-66
2022/06/22 11:25:10;;;;;;;1.25;1.15;;;25.30;37.10;;;;;;631474;227;26619;-66
2022/06/22 11:30:51;;;;;;;1.12;0.90;;;25.20;36.40;;;;;;629278;227;27211;-66
2022/06/22 11:33:35;;;;;;;1.73;1.20;;;25.20;37.80;;;;;;623024;230;26614;-68
2022/06/22 11:36:23;;;;;;;2.95;1.55;;;25.30;36.70;;;;;;614953;230;26865;-69
2022/06/22 11:39:00;;;;;;;20.15;5.05;;;25.30;36.50;;;;;;607024;231;26648;-66
2022/06/22 11:42:03;;;;;;;53.97;9.93;;;25.30;36.00;;;;;;623146;229;26908;-66
2022/06/22 11:44:41;;;;;;;132.57;30.17;;;25.30;36.70;;;;;;606243;230;26542;-68
2022/06/22 11:47:12;;;;;;;115.07;26.42;;;25.40;36.80;;;;;;617094;231;26635;-69
2022/06/22 11:49:56;;;;;;;70.60;18.08;;;25.50;36.30;;;;;;624792;229;26844;-69
2022/06/22 11:52:28;;;;;;;96.37;20.90;;;25.60;36.10;;;;;;628165;226;26794;-68
2022/06/22 11:54:59;;;;;;;80.45;19.90;;;25.70;36.00;;;;;;624183;230;26551;-68
2022/06/22 11:57:31;;;;;;;78.12;17.90;;;25.70;35.70;;;;;;624555;230;26882;-68
2022/06/22 12:00:11;;;;;;;74.97;16.85;;;25.60;36.10;;;;;;624977;228;26583;-68
2022/06/22 12:02:47;;;;;;;65.15;15.27;;;25.60;36.40;;;;;;623414;229;26573;-69
2022/06/22 12:05:21;;;;;;;41.58;11.10;;;25.60;36.30;;;;;;626266;229;26627;-69
2022/06/22 12:07:55;;;;;;;24.20;6.50;;;25.50;36.20;;;;;;626377;229;26777;-69
2022/06/22 12:10:31;;;;;;;25.17;7.25;;;25.50;35.80;;;;;;626192;229;26560;-69
2022/06/22 12:13:18;;;;;;;18.80;6.62;;;25.60;36.40;;;;;;626515;229;26650;-69
2022/06/22 12:15:50;;;;;;;20.90;6.37;;;25.80;35.20;;;;;;625228;229;27014;-69
2022/06/22 12:18:25;;;;;;;4.45;2.22;;;26.00;35.20;;;;;;626078;229;26846;-69
2022/06/22 12:21:18;;;;;;;8.27;3.15;;;26.30;36.70;;;;;;625625;229;26563;-69
2022/06/22 12:23:49;;;;;;;3.35;1.90;;;26.70;36.70;;;;;;622893;229;26564;-69
2022/06/22 12:26:24;;;;;;;6.15;2.80;;;27.00;35.00;;;;;;625731;229;26563;-69
2022/06/22 12:29:08;;;;;;;6.68;2.58;;;27.00;34.60;;;;;;626200;225;26599;-69
2022/06/22 12:31:36;;;;;;;1.58;1.48;;;27.20;33.80;;;;;;615378;229;27284;-69
2022/06/22 12:34:30;;;;;;;5.45;2.55;;;27.60;34.40;;;;;;626220;229;26796;-68
2022/06/22 12:36:57;;;;;;;4.12;2.22;;;28.00;33.90;;;;;;622742;229;26571;-67
2022/06/22 12:39:28;;;;;;;3.25;2.08;;;28.40;32.90;;;;;;626225;228;26836;-67
2022/06/22 12:42:02;;;;;;;5.97;2.40;;;28.60;32.50;;;;;;625974;230;26615;-68
2022/06/22 12:44:57;;;;;;;4.85;2.17;;;28.70;32.50;;;;;;624045;230;26780;-68
2022/06/22 12:47:38;;;;;;;3.85;2.05;;;28.90;31.30;;;;;;614501;230;26838;-68
2022/06/22 12:50:12;;;;;;;3.25;2.25;;;29.30;30.90;;;;;;625547;226;26567;-68
2022/06/22 12:52:42;;;;;;;4.80;2.17;;;29.70;30.80;;;;;;617741;231;26572;-68
2022/06/22 12:55:10;;;;;;;1.58;1.30;;;30.20;30.40;;;;;;625391;230;26519;-69
2022/06/22 12:57:41;;;;;;;1.48;1.37;;;30.80;30.60;;;;;;626267;228;27288;-68
2022/06/22 13:00:06;;;;;;;1.40;1.30;;;31.60;31.00;;;;;;621814;227;26642;-68
2022/06/22 13:02:33;;;;;;;1.42;0.90;;;32.10;30.50;;;;;;622779;230;26609;-68
2022/06/22 13:05:01;;;;;;;2.20;1.90;;;32.70;29.60;;;;;;625902;230;26797;-68
2022/06/22 13:07:28;;;;;;;1.30;1.20;;;32.50;28.80;;;;;;625275;228;26612;-67
2022/06/22 13:09:56;;;;;;;1.05;1.00;;;33.10;28.60;;;;;;626209;228;26578;-68
2022/06/22 13:12:25;;;;;;;1.17;1.08;;;33.60;29.30;;;;;;621632;230;26601;-67
2022/06/22 13:15:07;;;;;;;0.85;0.85;;;34.60;29.90;;;;;;625098;229;26579;-68
2022/06/22 13:17:35;;;;;;;1.12;1.05;;;36.00;28.50;;;;;;625450;230;26568;-68
2022/06/22 13:20:25;;;;;;;0.70;0.70;;;36.60;27.90;;;;;;625529;226;26595;-67
2022/06/22 13:22:55;;;;;;;3.95;1.87;;;36.60;27.80;;;;;;616800;229;26645;-67
2022/06/22 13:25:52;;;;;;;2.35;1.80;;;37.20;26.20;;;;;;639800;220;26525;-67
2022/06/22 13:28:24;;;;;;;2.67;1.98;;;37.50;25.40;;;;;;639294;221;26589;-67
2022/06/22 13:30:56;;;;;;;2.30;1.95;;;37.50;25.90;;;;;;647602;221;26512;-67
2022/06/22 13:33:24;;;;;;;3.65;1.70;;;37.40;25.60;;;;;;638058;221;26578;-67
2022/06/22 13:36:05;;;;;;;2.72;1.75;;;43.90;24.10;;;;;;642602;221;26590;-68